Time;durP1;ratioP1;P1;durP2;ratioP2;P2;SDS_P1;SDS_P2;PMS_P1;PMS_P2;Temp;Humidity;BMP_temperature;BMP_pressure;BME280_temperature;BME280_humidity;BME280_pressure;Samples;Min_cycle;Max_cycle;Signal;HPM_P1;HPM_P2
2022/06/09 00:01:48;;;;;;;27.33;14.07;;;16.80;81.50;;;;;;9181540;19;20349;-67
2022/06/09 00:04:53;;;;;;;25.67;14.75;;;16.80;81.60;;;;;;9180368;19;20368;-67
2022/06/09 00:08:00;;;;;;;27.85;13.85;;;16.80;81.60;;;;;;9176786;19;20019;-67
2022/06/09 00:11:08;;;;;;;32.88;14.07;;;16.80;81.60;;;;;;9181151;19;20029;-67
2022/06/09 00:14:14;;;;;;;28.80;14.57;;;16.80;81.70;;;;;;9180964;19;20022;-67
2022/06/09 00:17:21;;;;;;;33.60;13.90;;;16.80;81.60;;;;;;9178838;19;20021;-67
2022/06/09 00:20:26;;;;;;;30.55;14.20;;;16.70;81.60;;;;;;9180306;19;20015;-67
2022/06/09 00:23:32;;;;;;;24.17;13.88;;;16.70;81.60;;;;;;9182382;19;20757;-67
2022/06/09 00:26:37;;;;;;;22.88;13.35;;;16.70;81.70;;;;;;9190569;19;20015;-67
2022/06/09 00:29:42;;;;;;;21.92;12.77;;;16.70;81.70;;;;;;9189293;19;20026;-67
2022/06/09 00:32:50;;;;;;;29.55;12.80;;;16.70;81.70;;;;;;9190537;19;20019;-67
2022/06/09 00:35:55;;;;;;;30.02;12.70;;;16.70;81.80;;;;;;9186505;19;20045;-67
2022/06/09 00:39:00;;;;;;;28.23;11.48;;;16.70;81.70;;;;;;9190080;19;20033;-67
2022/06/09 00:42:06;;;;;;;23.83;11.52;;;16.60;81.70;;;;;;9185170;19;20018;-67
2022/06/09 00:45:29;;;;;;;26.20;10.80;;;16.60;81.70;;;;;;9189537;19;20018;-67
2022/06/09 00:48:44;;;;;;;38.53;10.23;;;16.60;81.90;;;;;;9188589;19;20022;-67
2022/06/09 00:51:55;;;;;;;21.08;8.45;;;16.60;81.80;;;;;;9189817;19;20463;-67
2022/06/09 00:55:06;;;;;;;22.00;8.23;;;16.60;81.70;;;;;;9186075;19;20014;-67
2022/06/09 00:58:15;;;;;;;20.98;8.35;;;16.50;81.70;;;;;;9187887;19;20018;-68
2022/06/09 01:01:21;;;;;;;25.60;7.38;;;16.50;81.80;;;;;;9189307;19;20491;-67
2022/06/09 01:04:32;;;;;;;22.38;7.57;;;16.50;81.70;;;;;;9188546;19;20021;-70
2022/06/09 01:07:40;;;;;;;13.77;5.78;;;16.50;81.80;;;;;;9185945;19;20380;-67
2022/06/09 01:10:45;;;;;;;18.77;6.68;;;16.40;82.30;;;;;;9187792;19;20014;-68
2022/06/09 01:13:51;;;;;;;23.08;5.90;;;16.40;81.70;;;;;;9186804;19;20014;-67
2022/06/09 01:17:04;;;;;;;20.08;6.28;;;16.40;81.70;;;;;;9183656;19;20014;-67
2022/06/09 01:20:26;;;;;;;22.08;5.72;;;16.40;81.80;;;;;;9187903;19;20015;-68
2022/06/09 01:24:01;;;;;;;21.73;5.13;;;16.30;81.80;;;;;;9188457;19;20476;-67
2022/06/09 01:27:19;;;;;;;20.13;4.78;;;16.30;81.80;;;;;;9188475;19;20015;-68
2022/06/09 01:30:36;;;;;;;16.15;4.80;;;16.20;81.70;;;;;;9188059;19;20018;-68
2022/06/09 01:33:48;;;;;;;19.25;5.07;;;16.20;82.30;;;;;;9183736;19;20044;-68
2022/06/09 01:36:57;;;;;;;15.85;4.70;;;16.20;81.70;;;;;;9182133;19;20018;-67
2022/06/09 01:40:05;;;;;;;17.23;4.38;;;16.10;81.70;;;;;;9182740;19;20007;-67
2022/06/09 01:43:11;;;;;;;16.25;4.88;;;16.10;81.70;;;;;;9186060;19;20019;-68
2022/06/09 01:46:26;;;;;;;20.02;4.90;;;16.10;81.80;;;;;;9185812;19;20014;-67
2022/06/09 01:49:34;;;;;;;22.25;4.30;;;16.00;81.80;;;;;;9187157;19;20404;-67
2022/06/09 01:52:42;;;;;;;16.98;4.20;;;16.00;81.70;;;;;;9187260;19;20015;-68
2022/06/09 01:55:52;;;;;;;18.80;4.30;;;16.00;81.80;;;;;;9183546;19;20014;-68
2022/06/09 01:59:00;;;;;;;18.42;5.18;;;16.00;81.80;;;;;;9184616;19;20487;-67
2022/06/09 02:02:12;;;;;;;17.33;4.90;;;15.90;81.80;;;;;;9185357;19;20018;-67
2022/06/09 02:05:22;;;;;;;17.77;5.03;;;15.90;81.90;;;;;;9187383;19;20035;-67
2022/06/09 02:08:28;;;;;;;18.15;4.53;;;15.90;81.90;;;;;;9184420;19;20014;-67
2022/06/09 02:11:33;;;;;;;17.33;4.68;;;15.80;81.80;;;;;;9186144;19;20014;-67
2022/06/09 02:14:41;;;;;;;26.20;5.90;;;15.80;81.90;;;;;;9183663;19;20033;-67
2022/06/09 02:17:52;;;;;;;18.08;6.13;;;15.80;82.00;;;;;;9184978;19;20017;-68
2022/06/09 02:21:00;;;;;;;22.02;5.88;;;15.70;82.00;;;;;;9185835;19;20017;-68
2022/06/09 02:24:05;;;;;;;29.80;7.80;;;15.70;82.10;;;;;;9185785;19;20020;-67
2022/06/09 02:27:11;;;;;;;27.98;6.05;;;15.70;82.00;;;;;;9185545;19;20076;-67
2022/06/09 02:30:16;;;;;;;28.58;6.18;;;15.70;82.10;;;;;;9183761;19;20022;-67
2022/06/09 02:33:44;;;;;;;24.05;6.00;;;15.60;82.00;;;;;;9183688;19;20038;-67
2022/06/09 02:36:49;;;;;;;18.42;6.75;;;15.60;82.10;;;;;;9183962;19;20014;-67
2022/06/09 02:39:54;;;;;;;22.20;6.88;;;15.60;82.10;;;;;;9181237;19;20377;-67
2022/06/09 02:43:00;;;;;;;21.90;8.05;;;15.60;82.20;;;;;;9184394;19;20018;-67
2022/06/09 02:46:06;;;;;;;21.83;7.20;;;15.60;82.30;;;;;;9182363;19;20393;-67
2022/06/09 02:49:14;;;;;;;19.80;6.78;;;15.60;82.30;;;;;;9182108;19;20041;-67
2022/06/09 02:52:19;;;;;;;18.17;6.57;;;15.60;82.40;;;;;;9183021;19;20010;-67
2022/06/09 02:55:25;;;;;;;28.70;7.40;;;15.50;82.30;;;;;;9181885;19;20019;-67
2022/06/09 02:58:30;;;;;;;21.20;6.07;;;15.50;82.40;;;;;;9183476;19;20021;-67
2022/06/09 03:01:35;;;;;;;23.00;6.43;;;15.60;82.50;;;;;;9182446;19;20019;-67
2022/06/09 03:04:43;;;;;;;29.63;8.30;;;15.50;82.50;;;;;;9182312;19;20022;-67
2022/06/09 03:07:48;;;;;;;24.95;7.40;;;15.50;82.60;;;;;;9180788;19;20025;-68
2022/06/09 03:10:53;;;;;;;20.58;7.75;;;15.50;82.60;;;;;;9184393;19;20007;-67
2022/06/09 03:13:58;;;;;;;23.55;8.20;;;15.50;82.60;;;;;;9182959;19;20876;-67
2022/06/09 03:17:03;;;;;;;19.77;7.90;;;15.50;82.60;;;;;;9180649;19;20009;-67
2022/06/09 03:20:16;;;;;;;23.10;9.30;;;15.50;83.30;;;;;;9181938;19;20030;-67
2022/06/09 03:23:21;;;;;;;26.33;9.68;;;15.50;82.80;;;;;;9183221;19;20006;-67
2022/06/09 03:26:26;;;;;;;26.83;9.77;;;15.50;82.70;;;;;;9181125;19;20014;-67
2022/06/09 03:29:32;;;;;;;22.83;10.15;;;15.50;82.80;;;;;;9183455;19;20405;-67
2022/06/09 03:32:37;;;;;;;21.65;8.98;;;15.50;82.80;;;;;;9183112;19;20015;-67
2022/06/09 03:35:45;;;;;;;22.85;8.85;;;15.50;82.80;;;;;;9179994;19;20014;-67
2022/06/09 03:38:50;;;;;;;24.65;10.40;;;15.50;82.90;;;;;;9180908;19;20017;-68
2022/06/09 03:41:55;;;;;;;30.08;9.40;;;15.40;82.80;;;;;;9176463;19;20093;-67
2022/06/09 03:45:01;;;;;;;21.67;8.63;;;15.50;82.90;;;;;;9182865;19;20336;-67
2022/06/09 03:48:07;;;;;;;23.42;8.75;;;15.40;82.90;;;;;;9180286;19;20364;-67
2022/06/09 03:51:16;;;;;;;30.40;10.45;;;15.50;82.90;;;;;;9181792;19;20718;-67
2022/06/09 03:54:21;;;;;;;26.70;9.98;;;15.40;83.00;;;;;;9182461;19;20023;-67
2022/06/09 03:57:26;;;;;;;23.55;9.32;;;15.40;83.00;;;;;;9180268;19;20487;-67
2022/06/09 04:00:33;;;;;;;21.63;9.20;;;15.40;83.00;;;;;;9178922;19;20471;-67
2022/06/09 04:03:38;;;;;;;30.05;9.15;;;15.40;83.10;;;;;;9180764;19;20022;-67
2022/06/09 04:06:45;;;;;;;30.83;9.50;;;15.40;83.00;;;;;;9179201;19;20108;-68
2022/06/09 04:09:51;;;;;;;24.63;9.95;;;15.40;83.20;;;;;;9179567;19;20011;-68
2022/06/09 04:12:56;;;;;;;23.70;10.18;;;15.40;83.10;;;;;;9181647;19;20011;-67
2022/06/09 04:16:01;;;;;;;30.10;10.88;;;15.40;83.20;;;;;;9179316;19;20345;-68
2022/06/09 04:19:10;;;;;;;25.85;10.20;;;15.40;83.60;;;;;;9181423;19;20018;-68
2022/06/09 04:22:20;;;;;;;23.70;9.90;;;15.40;83.20;;;;;;9176943;19;20476;-67
2022/06/09 04:25:25;;;;;;;25.73;10.48;;;15.40;83.30;;;;;;9180724;19;20033;-67
2022/06/09 04:28:30;;;;;;;26.60;9.05;;;15.40;83.30;;;;;;9181156;19;20018;-67
2022/06/09 04:31:36;;;;;;;29.20;9.32;;;15.40;83.40;;;;;;9180727;19;20086;-68
2022/06/09 04:34:42;;;;;;;25.13;10.30;;;15.40;83.40;;;;;;9178678;19;20014;-67
2022/06/09 04:38:04;;;;;;;26.73;9.23;;;15.40;83.50;;;;;;9176992;19;20021;-67
2022/06/09 04:41:11;;;;;;;30.48;9.30;;;15.40;83.40;;;;;;9176330;19;20495;-67
2022/06/09 04:44:16;;;;;;;24.88;8.77;;;15.40;83.40;;;;;;9180862;19;20049;-68
2022/06/09 04:47:21;;;;;;;29.73;9.95;;;15.40;83.40;;;;;;9179922;19;20345;-67
2022/06/09 04:50:27;;;;;;;20.17;8.57;;;15.40;83.40;;;;;;9180328;19;20547;-67
2022/06/09 04:53:35;;;;;;;17.67;7.97;;;15.40;83.50;;;;;;9180879;19;20030;-68
2022/06/09 04:56:40;;;;;;;20.65;7.95;;;15.40;83.50;;;;;;9179490;19;20018;-68
2022/06/09 04:59:45;;;;;;;22.77;8.10;;;15.40;83.50;;;;;;9180086;19;20014;-67
2022/06/09 05:02:51;;;;;;;21.67;8.80;;;15.40;83.60;;;;;;9177870;19;20361;-68
2022/06/09 05:05:56;;;;;;;19.52;7.10;;;15.40;83.60;;;;;;9179621;19;20537;-68
2022/06/09 05:09:04;;;;;;;16.20;6.85;;;15.40;83.60;;;;;;9174768;19;20018;-68
2022/06/09 05:12:09;;;;;;;26.23;7.60;;;15.40;83.70;;;;;;9186420;19;20015;-67
2022/06/09 05:15:16;;;;;;;23.05;7.78;;;15.40;83.70;;;;;;9187370;19;20014;-67
2022/06/09 05:18:23;;;;;;;23.00;7.20;;;15.40;83.80;;;;;;9183622;19;20011;-68
2022/06/09 05:21:28;;;;;;;20.77;6.78;;;15.40;83.70;;;;;;9187140;19;20011;-67
2022/06/09 05:24:36;;;;;;;23.85;8.10;;;15.40;83.80;;;;;;9187522;19;20010;-67
2022/06/09 05:27:41;;;;;;;20.30;6.45;;;15.50;83.90;;;;;;9186654;19;20021;-67
2022/06/09 05:30:46;;;;;;;17.38;7.18;;;15.50;83.90;;;;;;9186141;19;20006;-67
2022/06/09 05:33:51;;;;;;;24.13;7.85;;;15.50;84.00;;;;;;9187587;19;20019;-68
2022/06/09 05:36:56;;;;;;;14.80;7.10;;;15.50;84.10;;;;;;9186678;19;20023;-68
2022/06/09 05:46:40;;;;;;;19.83;6.72;;;15.70;84.20;;;;;;9186615;19;20019;-67
2022/06/09 05:49:52;;;;;;;22.45;7.40;;;15.80;84.30;;;;;;9185913;19;20361;-67
2022/06/09 05:52:57;;;;;;;22.70;7.00;;;15.90;84.20;;;;;;9187742;19;20018;-67
2022/06/09 05:56:05;;;;;;;18.33;6.25;;;15.90;84.20;;;;;;9186610;19;20487;-67
2022/06/09 05:59:10;;;;;;;19.05;6.28;;;16.00;84.30;;;;;;9181203;19;20018;-68
2022/06/09 06:02:15;;;;;;;15.18;6.10;;;16.10;84.40;;;;;;9180456;19;20352;-67
2022/06/09 06:08:39;;;;;;;14.23;5.22;;;16.40;84.50;;;;;;9174730;19;20186;-68
2022/06/09 06:11:48;;;;;;;17.42;6.07;;;16.50;84.40;;;;;;9177403;19;20026;-67
2022/06/09 06:14:53;;;;;;;14.75;5.20;;;16.60;84.50;;;;;;9180609;19;20540;-68
2022/06/09 06:18:02;;;;;;;17.17;4.85;;;16.70;84.40;;;;;;9172304;19;20029;-68
2022/06/09 06:21:07;;;;;;;21.17;5.43;;;16.90;84.40;;;;;;9176874;19;20010;-67
2022/06/09 06:24:14;;;;;;;16.80;4.35;;;17.00;84.40;;;;;;9180740;19;20026;-68
2022/06/09 06:27:21;;;;;;;17.00;4.43;;;17.20;84.30;;;;;;9176897;19;20017;-68
2022/06/09 06:30:46;;;;;;;18.27;6.53;;;17.30;84.20;;;;;;9177936;19;20025;-69
2022/06/09 06:33:51;;;;;;;10.38;3.97;;;17.50;84.10;;;;;;9176846;19;20025;-67
2022/06/09 06:36:57;;;;;;;13.95;4.28;;;17.70;84.00;;;;;;9181369;19;20089;-69
2022/06/09 06:40:02;;;;;;;20.50;4.22;;;17.90;83.90;;;;;;9179938;19;20015;-68
2022/06/09 06:43:10;;;;;;;12.05;4.15;;;18.10;83.80;;;;;;9180092;19;20054;-68
2022/06/09 06:46:16;;;;;;;18.40;5.25;;;18.20;83.60;;;;;;9181749;19;20049;-68
2022/06/09 06:49:21;;;;;;;12.35;4.28;;;18.40;83.50;;;;;;9178708;19;20073;-69
2022/06/09 06:52:27;;;;;;;10.90;3.95;;;18.60;83.40;;;;;;9186407;19;20018;-68
2022/06/09 06:55:33;;;;;;;16.73;3.88;;;18.80;83.10;;;;;;9178806;19;20016;-69
2022/06/09 06:58:42;;;;;;;12.27;3.28;;;19.00;82.90;;;;;;9182531;19;20009;-68
2022/06/09 07:01:47;;;;;;;8.50;3.40;;;19.10;82.50;;;;;;9184023;19;20024;-68
2022/06/09 07:04:52;;;;;;;8.73;3.03;;;19.30;82.30;;;;;;9182770;19;20033;-69
2022/06/09 07:07:58;;;;;;;9.95;3.17;;;19.40;82.00;;;;;;9183505;19;20033;-68
2022/06/09 07:11:03;;;;;;;10.10;2.90;;;19.50;81.70;;;;;;9181200;19;20022;-68
2022/06/09 07:14:11;;;;;;;9.60;3.20;;;19.60;81.40;;;;;;9183704;19;20337;-68
2022/06/09 07:17:17;;;;;;;11.38;3.00;;;19.70;81.00;;;;;;9182571;19;20018;-68
2022/06/09 07:20:23;;;;;;;11.65;3.63;;;19.70;80.90;;;;;;9184799;19;20015;-68
2022/06/09 07:23:29;;;;;;;6.32;3.13;;;19.80;80.80;;;;;;9185014;19;20003;-69
2022/06/09 07:26:34;;;;;;;7.35;2.35;;;19.80;80.80;;;;;;9184720;19;20351;-69
2022/06/09 07:29:42;;;;;;;8.75;2.10;;;20.00;80.80;;;;;;9184020;19;20031;-69
2022/06/09 07:32:47;;;;;;;11.77;2.20;;;20.10;80.80;;;;;;9183889;19;20030;-69
2022/06/09 07:35:53;;;;;;;12.02;2.38;;;20.30;80.80;;;;;;9183487;19;20022;-69
2022/06/09 07:38:59;;;;;;;6.30;2.10;;;20.40;80.50;;;;;;9181245;19;20014;-68
2022/06/09 07:42:05;;;;;;;11.95;2.67;;;20.50;80.20;;;;;;9177451;19;20014;-68
2022/06/09 07:45:16;;;;;;;7.03;2.08;;;20.70;79.90;;;;;;9183102;19;20546;-69
2022/06/09 07:48:21;;;;;;;6.47;1.75;;;20.80;79.50;;;;;;9181645;19;20044;-68
2022/06/09 07:51:46;;;;;;;6.65;1.80;;;21.00;79.40;;;;;;9179152;19;20022;-68
2022/06/09 07:54:52;;;;;;;6.15;1.35;;;21.10;79.00;;;;;;9181401;19;20018;-68
2022/06/09 07:58:02;;;;;;;6.13;1.75;;;21.20;78.70;;;;;;9181164;19;20365;-69
2022/06/09 08:01:11;;;;;;;8.40;1.92;;;21.40;78.30;;;;;;9182897;19;20041;-69
2022/06/09 08:04:17;;;;;;;6.93;1.67;;;21.50;77.90;;;;;;9178107;19;20018;-68
2022/06/09 08:07:22;;;;;;;8.55;1.95;;;21.50;77.60;;;;;;9179079;19;20460;-68
2022/06/09 08:10:30;;;;;;;4.03;1.80;;;21.60;77.40;;;;;;9180875;19;20010;-69
2022/06/09 08:13:35;;;;;;;8.52;1.73;;;21.70;77.10;;;;;;9181269;19;20491;-68
2022/06/09 08:16:43;;;;;;;5.55;1.30;;;21.70;76.90;;;;;;9182540;19;20014;-70
2022/06/09 08:19:49;;;;;;;6.30;1.40;;;21.80;76.70;;;;;;9180804;19;20108;-68
2022/06/09 08:22:54;;;;;;;3.20;1.45;;;21.90;76.60;;;;;;9182580;19;20468;-69
2022/06/09 08:26:03;;;;;;;4.57;1.52;;;21.90;76.30;;;;;;9180160;19;20026;-70
2022/06/09 08:29:08;;;;;;;3.78;1.50;;;21.90;76.00;;;;;;9180794;19;20017;-68
2022/06/09 08:32:15;;;;;;;3.83;1.42;;;22.10;75.90;;;;;;9179831;19;20023;-69
2022/06/09 08:35:21;;;;;;;5.88;1.10;;;22.10;75.70;;;;;;9179839;19;20021;-69
2022/06/09 08:38:26;;;;;;;5.35;1.20;;;22.20;75.50;;;;;;9180817;19;20022;-69
2022/06/09 08:41:40;;;;;;;8.63;1.02;;;22.30;75.20;;;;;;9178357;19;20018;-69
2022/06/09 08:44:53;;;;;;;5.53;1.42;;;22.40;74.80;;;;;;9182163;19;20019;-70
2022/06/09 08:48:02;;;;;;;9.57;1.33;;;22.40;74.60;;;;;;9187284;19;20009;-69
2022/06/09 08:51:13;;;;;;;4.00;1.20;;;22.50;74.40;;;;;;9184781;19;20022;-68
2022/06/09 08:54:27;;;;;;;6.78;1.10;;;22.50;74.10;;;;;;9186805;19;20078;-69
2022/06/09 08:57:35;;;;;;;4.20;1.00;;;22.50;73.90;;;;;;9188487;19;20448;-70
2022/06/09 09:00:43;;;;;;;6.28;1.05;;;22.60;74.00;;;;;;9179901;19;20018;-70
2022/06/09 09:03:54;;;;;;;6.40;1.00;;;22.70;73.80;;;;;;9187136;19;20014;-69
2022/06/09 09:07:07;;;;;;;6.03;1.05;;;22.70;73.40;;;;;;9187183;19;20021;-69
2022/06/09 09:10:21;;;;;;;4.70;1.40;;;22.80;73.20;;;;;;9190084;19;20011;-70
2022/06/09 09:13:38;;;;;;;5.80;1.40;;;22.80;72.90;;;;;;9189742;19;20025;-70
2022/06/09 09:16:49;;;;;;;3.13;0.95;;;22.90;72.80;;;;;;9188770;19;20014;-69
2022/06/09 09:20:04;;;;;;;3.67;1.17;;;22.90;72.70;;;;;;9187069;19;20018;-69
2022/06/09 09:23:17;;;;;;;5.15;0.88;;;23.00;72.30;;;;;;9189733;19;20015;-70
2022/06/09 09:26:30;;;;;;;3.60;1.00;;;23.10;72.20;;;;;;9189442;19;20070;-70
2022/06/09 09:29:42;;;;;;;7.05;1.50;;;23.20;72.10;;;;;;9188108;19;20034;-69
2022/06/09 09:32:53;;;;;;;5.80;1.10;;;23.40;71.90;;;;;;9183664;19;20019;-69
2022/06/09 09:36:03;;;;;;;10.05;1.35;;;23.50;71.50;;;;;;9189476;19;20014;-68
2022/06/09 09:39:17;;;;;;;2.85;1.00;;;23.70;71.10;;;;;;9186575;19;20015;-69
2022/06/09 09:42:24;;;;;;;;;;;23.80;70.80;;;;;;9184256;19;20471;-69
2022/06/09 09:45:38;;;;;;;6.03;1.08;;;23.90;71.50;;;;;;9186156;19;20795;-68
2022/06/09 09:48:46;;;;;;;5.35;1.20;;;24.10;70.50;;;;;;9187537;19;20023;-67
2022/06/09 09:51:54;;;;;;;5.25;1.80;;;24.10;70.10;;;;;;9184911;19;20022;-69
2022/06/09 09:54:59;;;;;;;8.10;1.08;;;24.20;69.80;;;;;;9186845;19;20565;-67
2022/06/09 09:58:19;;;;;;;5.63;1.42;;;24.20;69.70;;;;;;9180935;19;20596;-67
2022/06/09 10:01:32;;;;;;;3.63;1.23;;;24.20;69.50;;;;;;9186522;19;20054;-67
2022/06/09 10:11:58;;;;;;;5.93;1.50;;;23.90;68.40;;;;;;9185591;19;20022;-69
2022/06/09 10:15:06;;;;;;;7.55;1.83;;;23.80;68.70;;;;;;9187561;19;20010;-68
2022/06/09 10:18:26;;;;;;;5.22;1.20;;;23.60;68.60;;;;;;9185465;19;20101;-69
2022/06/09 10:21:54;;;;;;;7.40;1.17;;;23.50;68.60;;;;;;9185294;19;20007;-72
2022/06/09 10:25:03;;;;;;;;;;;23.50;68.80;;;;;;9186081;19;20025;-70
2022/06/09 10:28:19;;;;;;;5.45;1.20;;;23.40;69.00;;;;;;9187217;19;19929;-69
2022/06/09 10:31:42;;;;;;;5.03;1.00;;;23.30;68.50;;;;;;9186758;19;20019;-69
2022/06/09 10:34:53;;;;;;;3.17;0.75;;;23.20;68.20;;;;;;9184871;19;20026;-72
2022/06/09 10:38:03;;;;;;;4.18;0.90;;;23.10;68.20;;;;;;9183986;19;20018;-71
2022/06/09 10:41:15;;;;;;;3.80;1.00;;;23.00;68.00;;;;;;9178118;19;20007;-72
2022/06/09 10:44:26;;;;;;;4.68;1.02;;;23.00;67.90;;;;;;9184286;19;20017;-71
2022/06/09 10:57:54;;;;;;;3.00;1.60;;;22.60;67.80;;;;;;9182947;19;20368;-71
2022/06/09 11:01:00;;;;;;;4.45;1.35;;;22.60;68.00;;;;;;9178830;19;20022;-71
2022/06/09 11:04:12;;;;;;;3.20;0.80;;;22.60;68.10;;;;;;9177841;19;20022;-69
2022/06/09 11:07:52;;;;;;;8.88;1.17;;;22.60;68.10;;;;;;9176368;19;20143;-70
2022/06/09 11:11:03;;;;;;;6.30;1.00;;;22.80;67.90;;;;;;9179970;19;20476;-71
2022/06/09 11:14:26;;;;;;;8.68;1.08;;;22.90;68.00;;;;;;9177633;19;20025;-71
2022/06/09 11:17:50;;;;;;;6.60;1.00;;;23.00;67.70;;;;;;9177171;19;20460;-71
2022/06/09 11:21:08;;;;;;;6.22;1.27;;;23.20;67.40;;;;;;9182199;19;20022;-71
2022/06/09 11:24:28;;;;;;;9.82;1.10;;;23.40;67.20;;;;;;9182322;19;20020;-72
2022/06/09 11:27:41;;;;;;;4.55;1.10;;;23.60;66.50;;;;;;9182698;19;20021;-72
2022/06/09 11:31:06;;;;;;;2.75;0.82;;;23.70;66.40;;;;;;9184235;19;20025;-70
2022/06/09 11:34:58;;;;;;;3.13;1.00;;;23.70;66.00;;;;;;9181779;19;20048;-70
2022/06/09 11:38:34;;;;;;;5.00;0.95;;;23.80;65.80;;;;;;9182519;19;20034;-69
2022/06/09 11:41:49;;;;;;;5.90;0.60;;;23.90;65.60;;;;;;9177034;19;20021;-70
2022/06/09 11:44:56;;;;;;;4.65;1.00;;;24.00;65.50;;;;;;9183485;19;20513;-69
2022/06/09 11:48:12;;;;;;;7.47;0.95;;;24.10;65.60;;;;;;9183890;19;20011;-71
2022/06/09 11:51:20;;;;;;;3.40;1.00;;;24.20;65.00;;;;;;9180340;19;20018;-69
2022/06/09 11:54:45;;;;;;;4.80;1.00;;;24.30;64.80;;;;;;9181775;19;20402;-70
2022/06/09 11:57:53;;;;;;;4.22;0.90;;;24.40;64.20;;;;;;9182007;19;20081;-69
2022/06/09 12:01:08;;;;;;;5.72;1.38;;;24.40;64.30;;;;;;9175703;19;20380;-69
2022/06/09 12:04:50;;;;;;;4.88;1.05;;;24.40;64.20;;;;;;9175619;19;20368;-70
2022/06/09 12:08:24;;;;;;;5.97;1.23;;;24.50;63.70;;;;;;9170533;19;20017;-70
2022/06/09 12:12:02;;;;;;;6.50;1.13;;;24.50;63.60;;;;;;9172297;19;20480;-69
2022/06/09 12:15:28;;;;;;;4.85;1.15;;;24.60;63.60;;;;;;9172432;19;20021;-70
2022/06/09 12:18:40;;;;;;;6.68;1.13;;;24.60;63.40;;;;;;9169636;19;20034;-70
2022/06/09 12:21:48;;;;;;;3.70;0.95;;;24.70;63.30;;;;;;9168986;19;20639;-70
2022/06/09 12:25:21;;;;;;;4.05;1.25;;;24.80;63.30;;;;;;9172381;19;20376;-70
2022/06/09 12:28:59;;;;;;;6.63;1.27;;;24.90;62.80;;;;;;9170797;19;20467;-70
2022/06/09 12:32:46;;;;;;;6.97;1.33;;;25.00;62.60;;;;;;9173834;19;20014;-70
2022/06/09 12:35:53;;;;;;;5.78;1.00;;;25.10;62.40;;;;;;9170921;19;20018;-69
2022/06/09 12:39:00;;;;;;;4.13;1.15;;;25.20;62.70;;;;;;9170759;19;20014;-70
2022/06/09 12:42:09;;;;;;;7.60;1.55;;;25.30;62.40;;;;;;9163860;19;20023;-70
2022/06/09 12:45:20;;;;;;;5.00;1.40;;;25.40;62.10;;;;;;9169282;19;20478;-69
2022/06/09 12:48:30;;;;;;;5.95;1.55;;;25.40;61.70;;;;;;9173743;19;20018;-69
2022/06/09 12:51:37;;;;;;;9.55;1.42;;;25.50;61.50;;;;;;9172591;19;20021;-70
2022/06/09 12:54:43;;;;;;;4.65;0.90;;;25.50;61.50;;;;;;9170680;19;20017;-70
2022/06/09 12:57:51;;;;;;;6.53;1.15;;;25.50;61.40;;;;;;9170240;19;20010;-70
2022/06/09 13:01:01;;;;;;;4.00;0.95;;;25.50;61.00;;;;;;9170944;19;20030;-70
2022/06/09 13:04:08;;;;;;;5.40;1.00;;;25.50;60.60;;;;;;9170431;19;20090;-70
2022/06/09 13:07:23;;;;;;;3.47;1.02;;;25.60;60.70;;;;;;9166161;19;20018;-69
2022/06/09 13:10:30;;;;;;;3.67;0.93;;;25.60;60.40;;;;;;9169219;19;20018;-71
2022/06/09 13:13:41;;;;;;;7.55;1.05;;;25.70;60.70;;;;;;9167719;19;20487;-70
2022/06/09 13:16:51;;;;;;;5.40;1.38;;;25.80;60.40;;;;;;9167863;19;20078;-70
2022/06/09 13:20:02;;;;;;;3.13;1.00;;;25.90;60.30;;;;;;9168415;19;20018;-70
2022/06/09 13:23:08;;;;;;;4.55;1.02;;;25.90;60.00;;;;;;9168720;19;20029;-70
2022/06/09 13:26:17;;;;;;;4.53;1.10;;;26.00;60.00;;;;;;9168413;19;20476;-70
2022/06/09 13:29:25;;;;;;;4.95;0.95;;;26.00;59.50;;;;;;9168916;19;20026;-70
2022/06/09 13:32:42;;;;;;;5.68;1.10;;;26.10;59.40;;;;;;9176519;19;20023;-69
2022/06/09 13:35:48;;;;;;;6.13;1.67;;;26.10;58.80;;;;;;9178287;19;20044;-69
2022/06/09 13:38:53;;;;;;;5.20;1.13;;;26.10;59.00;;;;;;9178469;19;20026;-70
2022/06/09 13:42:05;;;;;;;2.95;1.00;;;26.10;58.80;;;;;;9170021;19;20480;-69
2022/06/09 13:45:19;;;;;;;7.85;1.30;;;26.10;58.30;;;;;;9174979;19;20014;-70
2022/06/09 13:48:27;;;;;;;3.97;1.30;;;26.00;58.10;;;;;;9179557;19;20360;-69
2022/06/09 13:51:36;;;;;;;8.57;1.55;;;26.00;58.00;;;;;;9176146;19;20026;-69
2022/06/09 13:54:43;;;;;;;5.95;1.20;;;26.00;57.90;;;;;;9175838;19;20015;-69
2022/06/09 13:57:50;;;;;;;6.28;1.10;;;26.00;57.80;;;;;;9176637;19;20041;-70
2022/06/09 14:00:58;;;;;;;7.90;1.17;;;26.00;57.70;;;;;;9176066;19;20013;-70
2022/06/09 14:04:10;;;;;;;4.00;0.80;;;25.90;57.60;;;;;;9174570;19;20042;-69
2022/06/09 14:07:18;;;;;;;7.53;1.38;;;25.90;57.30;;;;;;9175446;19;20029;-70
2022/06/09 14:10:26;;;;;;;4.93;0.98;;;25.80;57.10;;;;;;9175626;19;20112;-70
2022/06/09 14:13:32;;;;;;;6.10;1.42;;;25.80;57.10;;;;;;9173187;19;20507;-69
2022/06/09 14:16:39;;;;;;;6.65;1.35;;;25.80;57.10;;;;;;9175421;19;20030;-71
2022/06/09 14:19:46;;;;;;;4.93;1.20;;;25.80;56.90;;;;;;9175014;19;20024;-70
2022/06/09 14:22:52;;;;;;;5.47;1.35;;;25.70;56.60;;;;;;9174423;19;20010;-72
2022/06/09 14:25:59;;;;;;;5.93;1.30;;;25.70;56.70;;;;;;9173734;19;20460;-70
2022/06/09 14:29:07;;;;;;;6.30;1.35;;;25.60;56.50;;;;;;9174737;19;20505;-70
2022/06/09 14:32:18;;;;;;;6.68;1.40;;;25.60;56.30;;;;;;9174761;19;20014;-70
2022/06/09 14:35:26;;;;;;;4.95;1.13;;;25.50;56.00;;;;;;9174371;19;20015;-70
2022/06/09 14:38:31;;;;;;;4.32;1.00;;;25.50;56.10;;;;;;9177406;19;21039;-69
2022/06/09 14:41:42;;;;;;;5.72;1.08;;;25.40;56.00;;;;;;9167706;19;20018;-71
2022/06/09 14:44:48;;;;;;;6.85;1.23;;;25.40;55.90;;;;;;9172052;19;20120;-70
2022/06/09 14:47:54;;;;;;;3.10;1.00;;;25.30;55.70;;;;;;9173043;19;20015;-71
2022/06/09 14:51:02;;;;;;;5.55;1.60;;;25.30;55.70;;;;;;9172733;19;20025;-70
2022/06/09 14:54:07;;;;;;;4.90;1.02;;;25.20;55.40;;;;;;9172962;19;20022;-70
2022/06/09 14:57:14;;;;;;;6.88;1.33;;;25.20;55.60;;;;;;9175071;19;20038;-69
2022/06/09 15:00:22;;;;;;;5.70;1.38;;;25.20;55.50;;;;;;9174765;19;20015;-66
2022/06/09 15:03:27;;;;;;;13.32;1.52;;;25.10;55.40;;;;;;9173060;19;20022;-69
2022/06/09 15:06:39;;;;;;;8.32;1.88;;;25.10;55.60;;;;;;9181036;19;20019;-70
2022/06/09 15:09:45;;;;;;;8.13;1.45;;;25.00;55.30;;;;;;9182844;19;20368;-70
2022/06/09 15:12:50;;;;;;;4.95;1.40;;;25.00;55.40;;;;;;9182581;19;20010;-70
2022/06/09 15:15:58;;;;;;;4.80;1.20;;;24.90;55.30;;;;;;9182942;19;20483;-69
2022/06/09 15:19:15;;;;;;;6.22;1.42;;;24.90;55.30;;;;;;9183917;19;20022;-69
2022/06/09 15:22:23;;;;;;;8.40;1.35;;;24.80;55.20;;;;;;9182173;19;20356;-68
2022/06/09 15:25:30;;;;;;;9.20;1.27;;;24.80;55.10;;;;;;9178742;19;20511;-69
2022/06/09 15:28:35;;;;;;;10.32;1.75;;;24.80;55.10;;;;;;9179116;19;20920;-69
2022/06/09 15:31:40;;;;;;;4.43;1.05;;;24.70;55.10;;;;;;9176013;19;20014;-69
2022/06/09 15:34:45;;;;;;;6.10;1.40;;;24.70;55.10;;;;;;9176823;19;20010;-69
2022/06/09 15:37:54;;;;;;;9.13;1.98;;;24.70;55.00;;;;;;9168404;19;20022;-70
2022/06/09 15:40:59;;;;;;;7.38;1.90;;;24.60;54.90;;;;;;9165590;19;20025;-69
2022/06/09 15:44:04;;;;;;;5.93;1.25;;;24.60;54.90;;;;;;9172767;19;20018;-68
2022/06/09 15:47:10;;;;;;;9.13;1.35;;;24.60;54.80;;;;;;9170237;19;20022;-69
2022/06/09 15:50:18;;;;;;;5.55;1.20;;;24.60;54.80;;;;;;9173426;19;20014;-70
2022/06/09 15:53:26;;;;;;;7.55;1.77;;;24.50;54.60;;;;;;9175785;19;20043;-70
2022/06/09 15:56:31;;;;;;;6.65;1.30;;;24.50;54.60;;;;;;9179945;19;20019;-70
2022/06/09 15:59:36;;;;;;;7.70;1.17;;;24.40;54.60;;;;;;9182294;19;20042;-71
2022/06/09 16:02:41;;;;;;;9.00;1.60;;;24.40;54.60;;;;;;9176798;19;20015;-69
2022/06/09 16:05:48;;;;;;;14.70;1.83;;;24.40;54.70;;;;;;9178993;19;20561;-69
2022/06/09 16:08:56;;;;;;;6.80;1.40;;;24.30;54.50;;;;;;9173517;19;20018;-67
2022/06/09 16:12:01;;;;;;;7.32;2.15;;;24.20;54.40;;;;;;9174771;19;20018;-67
2022/06/09 16:15:08;;;;;;;9.65;1.50;;;24.10;54.50;;;;;;9175911;19;20022;-68
2022/06/09 16:18:15;;;;;;;7.88;1.58;;;24.00;54.50;;;;;;9169379;19;20029;-67
2022/06/09 16:21:20;;;;;;;4.57;0.95;;;24.00;54.50;;;;;;9173053;19;20102;-68
2022/06/09 16:24:28;;;;;;;9.75;1.63;;;23.90;54.60;;;;;;9174603;19;20011;-68
2022/06/09 16:27:33;;;;;;;8.65;1.27;;;23.90;54.50;;;;;;9176735;19;20021;-69
2022/06/09 16:30:38;;;;;;;9.90;1.58;;;23.80;54.60;;;;;;9174381;19;20018;-69
2022/06/09 16:33:43;;;;;;;9.10;1.70;;;23.70;54.70;;;;;;9172131;19;20036;-68
2022/06/09 16:36:48;;;;;;;6.10;1.27;;;23.60;54.60;;;;;;9173976;19;20878;-68
2022/06/09 16:39:56;;;;;;;6.30;1.65;;;23.60;54.70;;;;;;9169171;19;20025;-70
2022/06/09 16:43:02;;;;;;;6.60;1.48;;;23.50;54.70;;;;;;9166076;19;20015;-69
2022/06/09 16:46:08;;;;;;;9.25;1.55;;;23.40;54.80;;;;;;9175874;19;20082;-66
2022/06/09 16:49:13;;;;;;;10.18;1.20;;;23.40;54.90;;;;;;9172674;19;20033;-70